KCUH/CUH METAR and TAF weather

Enter ICAO airport designator
Station Type Date Time Source
KCUH METAR 2018/04/23 11:15 UTC NOAA

KCUH 231115Z AUTO 32006KT 10SM OVC025 10/09 A3006 RMK AO2 T01000086


Station Type Date Time Source
KCUH Decoded METAR 2018/04/23 11:15 UTC NOAA

Cushing, Cushing Municipal Airport, OK, United States (KCUH) 35-56-59N 096-46-22W
Apr 23, 2018 - 07:15 AM EDT / 2018.04.23 1115 UTC
Wind: from the NW (320 degrees) at 7 MPH (6 KT):0
Visibility: 10 mile(s):0
Sky conditions: overcast
Temperature: 50.0 F (10.0 C)
Dew Point: 47.5 F (8.6 C)
Relative Humidity: 90%
Pressure (altimeter): 30.06 in. Hg (1017 hPa)
ob: KCUH 231115Z AUTO 32006KT 10SM OVC025 10/09 A3006 RMK AO2 T01000086
cycle: 11

Station Type Date Time Source
KCUH TAF UTC NOAA

Error!


Example: see airport list